Cleghorn, Iowa
Current Conditions -  °F | °C
As of 8:35 AM on Sunday 23 Nov 2014 (Local Time) from KCKP Reporting Station
Haze Haze  
Wind Chill: 50°   Ceiling: 1000
Heat Index: 50°   Visibility: 5mi
Dew Point: 50°   Wind: 7mph
Humidity: 100%   Direction: 220°SW
Pressure: 29.46"   Gusts: NA
Location:  42.81°N, 95.71°W
Report Text: KCKP 231435Z AUTO 22006KT 5SM BR BKN010 BKN014 OVC020 10/10 A2946 RMK AO2 T01020102
Loading
Personal Weather Stations






























Interactive Weather Map New forecast layout! Learn more

10-Day Weather Forecast

Advertisements
Track Severe Weather on mobile